createdAt,value
2024-01-06T00:01:46.928Z,1.70
2024-01-06T00:04:13.766Z,1.57
2024-01-06T00:06:40.553Z,1.63
2024-01-06T00:09:07.570Z,1.40
2024-01-06T00:11:39.014Z,1.40
2024-01-06T00:14:08.240Z,1.43
2024-01-06T00:16:37.339Z,1.53
2024-01-06T00:19:04.192Z,1.60
2024-01-06T00:21:33.457Z,1.60
2024-01-06T00:24:00.669Z,1.20
2024-01-06T00:26:28.217Z,1.40
2024-01-06T00:28:58.031Z,1.40
2024-01-06T00:31:24.827Z,1.50
2024-01-06T00:33:56.077Z,1.30
2024-01-06T00:36:22.895Z,1.50
2024-01-06T00:38:52.143Z,1.37
2024-01-06T00:41:18.840Z,1.47
2024-01-06T00:43:45.553Z,1.50
2024-01-06T00:46:14.462Z,1.58
2024-01-06T00:48:41.281Z,1.40
2024-01-06T00:51:10.460Z,1.50
2024-01-06T00:53:39.720Z,1.30
2024-01-06T00:56:08.701Z,1.27
2024-01-06T00:58:35.439Z,1.60
2024-01-06T01:01:05.037Z,1.43
2024-01-06T01:03:31.924Z,1.60
2024-01-06T01:05:58.923Z,1.60
2024-01-06T01:08:27.830Z,1.60
2024-01-06T01:10:56.785Z,1.60
2024-01-06T01:13:23.751Z,1.70
2024-01-06T01:15:50.752Z,1.70
2024-01-06T01:18:17.685Z,1.70
2024-01-06T01:20:44.490Z,1.60
2024-01-06T01:23:11.228Z,1.60
2024-01-06T01:25:37.950Z,1.70
2024-01-06T01:28:04.954Z,1.80
2024-01-06T01:30:34.374Z,1.90
2024-01-06T01:33:01.314Z,1.70
2024-01-06T01:35:30.276Z,1.60
2024-01-06T01:37:56.981Z,1.50
2024-01-06T01:40:23.739Z,1.60
2024-01-06T01:42:52.709Z,1.67
2024-01-06T01:45:21.934Z,1.60
2024-01-06T01:47:48.802Z,1.73
2024-01-06T01:50:17.950Z,1.90
2024-01-06T01:52:44.804Z,2.30
2024-01-06T01:55:14.601Z,1.83
2024-01-06T01:57:42.270Z,1.60
2024-01-06T02:00:12.291Z,1.80
2024-01-06T02:02:39.567Z,2.10
2024-01-06T02:05:06.484Z,1.97
2024-01-06T02:07:35.698Z,1.40
2024-01-06T02:10:04.867Z,1.80
2024-01-06T02:12:33.805Z,1.70
2024-01-06T02:15:02.657Z,1.50
2024-01-06T02:17:31.891Z,1.80
2024-01-06T02:20:00.851Z,1.70
2024-01-06T02:22:27.605Z,1.67
2024-01-06T02:24:57.041Z,1.70
2024-01-06T02:27:26.142Z,2.13
2024-01-06T02:29:52.900Z,1.73
2024-01-06T02:32:19.629Z,1.70
2024-01-06T02:34:46.450Z,1.90
2024-01-06T02:37:15.655Z,1.90
2024-01-06T02:39:42.383Z,1.90
2024-01-06T02:42:09.141Z,1.87
2024-01-06T02:44:35.963Z,1.97
2024-01-06T02:47:02.736Z,1.60
2024-01-06T02:49:31.824Z,1.80
2024-01-06T02:51:58.883Z,2.20
2024-01-06T02:54:25.613Z,2.00
2024-01-06T02:56:52.392Z,2.40
2024-01-06T02:59:19.068Z,2.07
2024-01-06T03:01:48.108Z,1.90
2024-01-06T03:04:19.965Z,2.23
2024-01-06T03:06:47.302Z,1.90
2024-01-06T03:09:18.288Z,2.10
2024-01-06T03:11:45.009Z,2.20
2024-01-06T03:14:16.707Z,1.97
2024-01-06T03:16:45.945Z,2.03
2024-01-06T03:19:12.773Z,1.77
2024-01-06T03:21:42.100Z,1.80
2024-01-06T03:24:10.237Z,2.00
2024-01-06T03:26:37.417Z,1.90
2024-01-06T03:29:07.309Z,1.90
2024-01-06T03:31:34.205Z,2.30
2024-01-06T03:34:03.559Z,2.07
2024-01-06T03:36:30.324Z,2.00
2024-01-06T03:38:59.233Z,1.80
2024-01-06T03:41:25.910Z,1.90
2024-01-06T03:43:52.640Z,1.80
2024-01-06T03:46:19.388Z,1.50
2024-01-06T03:48:51.159Z,1.67
2024-01-06T03:51:18.010Z,1.70
2024-01-06T03:53:47.141Z,1.80
2024-01-06T03:56:16.925Z,1.83
2024-01-06T03:58:45.896Z,1.70
2024-01-06T04:01:14.887Z,1.60
2024-01-06T04:03:41.783Z,1.23
2024-01-06T04:06:11.549Z,1.70
2024-01-06T04:08:40.159Z,1.53
2024-01-06T04:11:09.268Z,1.67
2024-01-06T04:13:36.380Z,1.43
2024-01-06T04:16:06.376Z,1.70
2024-01-06T04:18:33.751Z,1.70
2024-01-06T04:21:02.994Z,1.40
2024-01-06T04:23:32.108Z,1.58
2024-01-06T04:25:58.869Z,1.40
2024-01-06T04:28:25.662Z,1.33
2024-01-06T04:30:53.201Z,1.30
2024-01-06T04:33:20.179Z,1.30
2024-01-06T04:35:47.130Z,1.37
2024-01-06T04:38:13.910Z,1.27
2024-01-06T04:40:40.831Z,1.57
2024-01-06T04:43:08.353Z,1.40
2024-01-06T04:45:35.785Z,1.20
2024-01-06T04:48:04.701Z,1.50
2024-01-06T04:50:31.653Z,1.60
2024-01-06T04:53:01.599Z,1.57
2024-01-06T04:55:28.325Z,1.30
2024-01-06T04:57:57.493Z,2.00
2024-01-06T05:00:24.549Z,2.60
2024-01-06T05:02:51.451Z,2.70
2024-01-06T05:05:18.357Z,2.47
2024-01-06T05:07:45.170Z,2.40
2024-01-06T05:10:14.162Z,2.17
2024-01-06T05:12:40.923Z,1.97
2024-01-06T05:15:08.067Z,2.10
2024-01-06T05:17:34.884Z,2.00
2024-01-06T05:20:01.795Z,1.67
2024-01-06T05:22:28.668Z,1.87
2024-01-06T05:24:55.531Z,1.83
2024-01-06T05:27:22.402Z,1.60
2024-01-06T05:29:50.549Z,1.60
2024-01-06T05:32:20.213Z,1.40
2024-01-06T05:34:52.020Z,1.60
2024-01-06T05:37:18.877Z,1.60
2024-01-06T05:39:46.013Z,1.73
2024-01-06T05:42:14.033Z,1.77
2024-01-06T05:44:40.897Z,2.03
2024-01-06T05:47:09.378Z,1.60
2024-01-06T05:49:36.500Z,1.60
2024-01-06T05:52:03.450Z,1.80
2024-01-06T05:54:30.162Z,1.60
2024-01-06T05:56:59.597Z,1.73
2024-01-06T05:59:28.788Z,1.60
2024-01-06T06:01:55.566Z,1.80
2024-01-06T06:04:24.819Z,1.80
2024-01-06T06:06:52.204Z,1.70
2024-01-06T06:09:19.076Z,1.80
2024-01-06T06:11:50.845Z,1.90
2024-01-06T06:14:17.574Z,1.50
2024-01-06T06:16:44.251Z,1.80
2024-01-06T06:19:15.602Z,1.60
2024-01-06T06:21:42.366Z,1.77
2024-01-06T06:24:11.614Z,1.80
2024-01-06T06:26:41.555Z,1.70
2024-01-06T06:29:09.108Z,1.57
2024-01-06T06:31:40.601Z,1.93
2024-01-06T06:34:10.667Z,2.23
2024-01-06T06:36:40.312Z,1.85
2024-01-06T06:39:09.704Z,1.60
2024-01-06T06:41:36.419Z,1.67
2024-01-06T06:44:03.120Z,1.70
2024-01-06T06:46:29.882Z,1.90
2024-01-06T06:48:56.667Z,1.97
2024-01-06T06:51:26.476Z,1.60
2024-01-06T06:53:53.520Z,1.60
2024-01-06T06:56:20.293Z,1.60
2024-01-06T06:58:46.965Z,2.00
2024-01-06T07:01:16.586Z,1.80
2024-01-06T07:03:45.609Z,1.77
2024-01-06T07:06:15.923Z,3.50
2024-01-06T07:08:43.435Z,2.83
2024-01-06T07:11:12.419Z,4.03
2024-01-06T07:13:41.361Z,3.87
2024-01-06T07:16:15.394Z,4.43
2024-01-06T07:18:46.586Z,3.83
2024-01-06T07:21:14.958Z,3.50
2024-01-06T07:23:44.025Z,3.33
2024-01-06T07:26:10.784Z,3.23
2024-01-06T07:28:42.268Z,3.20
2024-01-06T07:31:09.039Z,3.20
2024-01-06T07:33:35.922Z,2.93
2024-01-06T07:36:02.782Z,2.70
2024-01-06T07:38:32.067Z,2.63
2024-01-06T07:40:59.268Z,2.40
2024-01-06T07:43:30.393Z,2.43
2024-01-06T07:45:57.260Z,3.63
2024-01-06T07:48:24.192Z,4.30
2024-01-06T07:50:51.441Z,4.10
2024-01-06T07:53:18.564Z,3.90
2024-01-06T07:55:45.711Z,4.27
2024-01-06T07:58:13.034Z,5.50
2024-01-06T08:00:44.196Z,5.60
2024-01-06T08:03:12.751Z,4.67
2024-01-06T08:05:39.867Z,4.80
2024-01-06T08:08:06.990Z,4.90
2024-01-06T08:10:33.676Z,4.40
2024-01-06T08:13:01.140Z,4.40
2024-01-06T08:15:28.313Z,4.40
2024-01-06T08:17:57.566Z,4.60
2024-01-06T08:20:24.750Z,4.10
2024-01-06T08:22:53.913Z,4.43
2024-01-06T08:25:20.649Z,4.53
2024-01-06T08:27:47.411Z,4.37
2024-01-06T08:30:16.842Z,4.23
2024-01-06T08:32:48.464Z,3.83
2024-01-06T08:35:18.107Z,4.30
2024-01-06T08:37:45.457Z,4.70
2024-01-06T08:40:12.787Z,4.63
2024-01-06T08:42:39.540Z,4.00
2024-01-06T08:45:09.026Z,4.77
2024-01-06T08:47:35.960Z,4.77
2024-01-06T08:50:02.899Z,4.30
2024-01-06T08:52:32.017Z,4.97
2024-01-06T08:54:58.832Z,5.27
2024-01-06T08:57:25.619Z,4.77
2024-01-06T08:59:54.799Z,4.60
2024-01-06T09:02:21.506Z,5.23
2024-01-06T09:04:48.671Z,5.20
2024-01-06T09:07:15.791Z,4.87
2024-01-06T09:09:43.070Z,4.87
2024-01-06T09:12:10.241Z,5.00
2024-01-06T09:14:37.409Z,4.83
2024-01-06T09:17:05.224Z,5.50
2024-01-06T09:19:35.057Z,5.15
2024-01-06T09:22:01.922Z,5.23
2024-01-06T09:24:28.692Z,4.97
2024-01-06T09:26:58.341Z,4.53
2024-01-06T09:29:25.002Z,4.20
2024-01-06T09:31:51.837Z,4.37
2024-01-06T09:34:18.808Z,4.23
2024-01-06T09:36:46.214Z,4.00
2024-01-06T09:39:15.190Z,4.17
2024-01-06T09:41:42.897Z,4.23
2024-01-06T09:44:13.313Z,4.37
2024-01-06T09:46:45.482Z,3.50
2024-01-06T09:49:16.326Z,4.43
2024-01-06T09:51:43.793Z,3.77
2024-01-06T09:54:13.177Z,3.73
2024-01-06T09:56:40.981Z,4.20
2024-01-06T09:59:07.694Z,4.30
2024-01-06T10:01:37.378Z,4.20
2024-01-06T10:04:04.445Z,3.97
2024-01-06T10:06:31.291Z,3.67
2024-01-06T10:08:58.413Z,3.93
2024-01-06T10:11:25.405Z,4.07
2024-01-06T10:13:53.044Z,4.03
2024-01-06T10:16:20.540Z,3.40
2024-01-06T10:18:52.499Z,3.70
2024-01-06T10:21:24.281Z,3.47
2024-01-06T10:23:52.269Z,3.70
2024-01-06T10:26:23.736Z,4.03
2024-01-06T10:28:52.926Z,3.30
2024-01-06T10:31:20.219Z,3.00
2024-01-06T10:33:47.682Z,3.63
2024-01-06T10:36:16.914Z,3.00
2024-01-06T10:38:45.314Z,3.00
2024-01-06T10:41:12.895Z,3.28
2024-01-06T10:43:42.521Z,3.10
2024-01-06T10:46:12.292Z,2.90
2024-01-06T10:48:44.245Z,2.80
2024-01-06T10:51:12.822Z,2.63
2024-01-06T10:53:45.916Z,2.60
2024-01-06T10:56:12.805Z,2.43
2024-01-06T10:58:46.065Z,2.63
2024-01-06T11:01:20.387Z,2.80
2024-01-06T11:03:49.823Z,2.65
2024-01-06T11:06:19.883Z,2.83
2024-01-06T11:09:03.016Z,2.40
2024-01-06T11:11:31.722Z,2.50
2024-01-06T11:14:26.119Z,2.60
2024-01-06T11:16:56.564Z,3.20
2024-01-06T11:19:38.815Z,2.77
2024-01-06T11:22:26.043Z,2.47
2024-01-06T11:24:57.169Z,2.50
2024-01-06T11:27:33.395Z,2.87
2024-01-06T11:30:06.536Z,2.80
2024-01-06T11:32:42.124Z,3.13
2024-01-06T11:35:11.405Z,2.77
2024-01-06T11:37:53.036Z,3.00
2024-01-06T11:40:22.810Z,2.70
2024-01-06T11:43:05.677Z,2.40
2024-01-06T11:45:36.221Z,2.27
2024-01-06T11:48:09.893Z,2.70
2024-01-06T11:50:39.228Z,2.20
2024-01-06T11:53:07.675Z,2.40
2024-01-06T11:55:35.853Z,2.30
2024-01-06T11:58:04.880Z,2.60
2024-01-06T12:00:38.156Z,2.33
2024-01-06T12:03:05.589Z,2.90
2024-01-06T12:05:34.576Z,2.47
2024-01-06T12:08:08.954Z,2.00
2024-01-06T12:10:36.981Z,2.50
2024-01-06T12:13:18.308Z,1.90
2024-01-06T12:15:46.031Z,1.87
2024-01-06T12:18:12.804Z,1.90
2024-01-06T12:20:39.703Z,1.80
2024-01-06T12:23:07.388Z,2.10
2024-01-06T12:25:41.138Z,2.23
2024-01-06T12:28:10.981Z,2.10
2024-01-06T12:30:39.743Z,1.90
2024-01-06T12:33:08.991Z,1.80
2024-01-06T12:35:40.507Z,1.53
2024-01-06T12:38:08.886Z,1.43
2024-01-06T12:40:39.201Z,1.70
2024-01-06T12:43:08.704Z,1.43
2024-01-06T12:45:35.591Z,1.80
2024-01-06T12:48:02.755Z,2.10
2024-01-06T12:50:29.611Z,1.67
2024-01-06T12:52:56.342Z,1.93
2024-01-06T12:55:25.235Z,1.70
2024-01-06T12:57:54.550Z,1.60
2024-01-06T13:00:21.554Z,1.50
2024-01-06T13:02:48.416Z,1.80
2024-01-06T13:05:15.207Z,1.20
2024-01-06T13:07:44.460Z,1.10
2024-01-06T13:10:11.477Z,1.23
2024-01-06T13:12:42.873Z,1.30
2024-01-06T13:15:12.434Z,1.20
2024-01-06T13:17:39.464Z,1.30
2024-01-06T13:20:07.148Z,1.40
2024-01-06T13:22:36.366Z,1.03
2024-01-06T13:25:08.968Z,0.93
2024-01-06T13:27:36.106Z,1.20
2024-01-06T13:30:05.276Z,0.93
2024-01-06T13:32:35.953Z,0.97
2024-01-06T13:35:05.367Z,0.90
2024-01-06T13:37:35.288Z,0.97
2024-01-06T13:40:02.277Z,0.90
2024-01-06T13:42:31.398Z,0.80
2024-01-06T13:45:01.482Z,1.07
2024-01-06T13:47:28.281Z,1.17
2024-01-06T13:49:56.378Z,1.00
2024-01-06T13:52:23.664Z,1.10
2024-01-06T13:54:50.549Z,0.87
2024-01-06T13:57:22.178Z,0.90
2024-01-06T13:59:51.090Z,1.10
2024-01-06T14:02:18.598Z,1.13
2024-01-06T14:04:45.364Z,0.93
2024-01-06T14:07:14.957Z,1.30
2024-01-06T14:09:41.736Z,1.20
2024-01-06T14:12:08.706Z,1.30
2024-01-06T14:14:35.790Z,1.10
2024-01-06T14:17:05.011Z,1.23
2024-01-06T14:19:32.062Z,1.03
2024-01-06T14:22:01.068Z,1.03
2024-01-06T14:24:28.133Z,0.97
2024-01-06T14:26:57.704Z,1.10
2024-01-06T14:29:25.010Z,0.97
2024-01-06T14:31:54.253Z,0.93
2024-01-06T14:34:23.552Z,0.93
2024-01-06T14:36:52.647Z,0.97
2024-01-06T14:39:25.018Z,0.80
2024-01-06T14:41:53.016Z,0.90
2024-01-06T14:44:21.050Z,0.90
2024-01-06T14:46:48.934Z,1.00
2024-01-06T14:49:18.047Z,0.90
2024-01-06T14:51:47.207Z,0.90
2024-01-06T14:54:16.567Z,0.73
2024-01-06T14:56:47.530Z,0.80
2024-01-06T14:59:18.500Z,1.00
2024-01-06T15:01:49.361Z,0.60
2024-01-06T15:04:16.333Z,0.90
2024-01-06T15:06:45.005Z,0.90
2024-01-06T15:09:14.398Z,1.03
2024-01-06T15:11:41.288Z,0.80
2024-01-06T15:14:10.055Z,1.33
2024-01-06T15:16:37.966Z,1.17
2024-01-06T15:19:05.671Z,0.90
2024-01-06T15:21:35.005Z,0.83
2024-01-06T15:24:02.619Z,1.10
2024-01-06T15:26:32.188Z,1.27
2024-01-06T15:29:01.587Z,1.30
2024-01-06T15:31:30.645Z,1.07
2024-01-06T15:33:57.730Z,1.37
2024-01-06T15:36:28.994Z,1.40
2024-01-06T15:38:57.984Z,1.10
2024-01-06T15:41:24.785Z,1.17
2024-01-06T15:43:54.087Z,1.27
2024-01-06T15:46:21.787Z,1.40
2024-01-06T15:48:49.133Z,1.40
2024-01-06T15:51:16.315Z,4.53
2024-01-06T15:53:43.518Z,2.60
2024-01-06T15:56:10.280Z,3.10
2024-01-06T15:58:39.614Z,3.10
2024-01-06T16:01:08.905Z,3.27
2024-01-06T16:03:35.724Z,3.35
2024-01-06T16:06:02.962Z,2.93
2024-01-06T16:08:30.258Z,3.40
2024-01-06T16:10:59.398Z,2.50
2024-01-06T16:13:28.534Z,2.17
2024-01-06T16:15:55.787Z,1.70
2024-01-06T16:18:23.259Z,1.93
2024-01-06T16:20:50.403Z,1.93
2024-01-06T16:23:18.254Z,1.90
2024-01-06T16:25:45.135Z,1.70
2024-01-06T16:28:14.845Z,1.33
2024-01-06T16:30:42.480Z,1.67
2024-01-06T16:33:10.172Z,2.20
2024-01-06T16:35:38.477Z,1.80
2024-01-06T16:38:10.154Z,1.80
2024-01-06T16:40:39.409Z,1.80
2024-01-06T16:43:06.584Z,2.00
2024-01-06T16:45:36.057Z,2.03
2024-01-06T16:48:02.935Z,1.70
2024-01-06T16:50:40.194Z,1.60
2024-01-06T16:53:07.904Z,1.67
2024-01-06T16:55:37.249Z,1.60
2024-01-06T16:58:04.281Z,1.60
2024-01-06T17:00:31.312Z,1.30
2024-01-06T17:03:02.870Z,1.40
2024-01-06T17:05:32.268Z,1.27
2024-01-06T17:08:01.279Z,1.30
2024-01-06T17:10:27.957Z,1.37
2024-01-06T17:12:55.484Z,1.40
2024-01-06T17:15:27.325Z,1.40
2024-01-06T17:17:54.170Z,1.30
2024-01-06T17:20:24.236Z,1.20
2024-01-06T17:22:50.999Z,1.15
2024-01-06T17:25:17.880Z,1.40
2024-01-06T17:27:46.825Z,1.20
2024-01-06T17:30:16.527Z,1.30
2024-01-06T17:32:43.550Z,1.50
2024-01-06T17:35:10.584Z,1.13
2024-01-06T17:37:37.531Z,1.13
2024-01-06T17:40:06.328Z,1.10
2024-01-06T17:42:33.468Z,1.10
2024-01-06T17:45:00.401Z,0.88
2024-01-06T17:47:29.453Z,1.10
2024-01-06T17:49:56.357Z,1.63
2024-01-06T17:52:27.064Z,1.10
2024-01-06T17:54:53.969Z,1.00
2024-01-06T17:57:20.833Z,1.30
2024-01-06T17:59:51.620Z,1.20
2024-01-06T18:02:18.371Z,0.93
2024-01-06T18:04:45.580Z,1.10
2024-01-06T18:07:12.503Z,1.20
2024-01-06T18:09:39.741Z,1.40
2024-01-06T18:12:07.023Z,1.10
2024-01-06T18:14:36.983Z,1.23
2024-01-06T18:17:07.575Z,1.50
2024-01-06T18:19:34.386Z,1.30
2024-01-06T18:22:01.239Z,1.43
2024-01-06T18:24:28.492Z,1.00
2024-01-06T18:26:57.785Z,1.20
2024-01-06T18:29:24.517Z,0.90
2024-01-06T18:31:51.317Z,1.07
2024-01-06T18:34:18.887Z,1.30
2024-01-06T18:36:48.483Z,1.25
2024-01-06T18:39:17.740Z,1.10
2024-01-06T18:41:44.939Z,1.00
2024-01-06T18:44:12.168Z,1.20
2024-01-06T18:46:39.798Z,1.50
2024-01-06T18:49:09.207Z,1.03
2024-01-06T18:51:39.635Z,1.27
2024-01-06T18:54:12.545Z,1.40
2024-01-06T18:56:43.445Z,1.30
2024-01-06T18:59:10.249Z,1.17
2024-01-06T19:01:37.160Z,1.67
2024-01-06T19:04:04.172Z,1.83
2024-01-06T19:06:31.745Z,1.42
2024-01-06T19:08:58.498Z,1.30
2024-01-06T19:11:27.861Z,1.30
2024-01-06T19:13:55.472Z,1.40
2024-01-06T19:16:24.373Z,1.50
2024-01-06T19:18:51.613Z,1.57
2024-01-06T19:21:19.852Z,1.60
2024-01-06T19:23:46.950Z,1.60
2024-01-06T19:26:16.261Z,1.30
2024-01-06T19:28:43.001Z,1.60
2024-01-06T19:31:10.959Z,1.60
2024-01-06T19:33:37.760Z,1.70
2024-01-06T19:36:04.926Z,1.30
2024-01-06T19:38:31.974Z,1.80
2024-01-06T19:40:59.114Z,1.33
2024-01-06T19:43:25.832Z,1.50
2024-01-06T19:45:54.896Z,1.30
2024-01-06T19:48:24.251Z,1.67
2024-01-06T19:50:53.611Z,1.90
2024-01-06T19:53:20.328Z,1.80
2024-01-06T19:55:49.648Z,1.70
2024-01-06T19:58:18.677Z,2.53
2024-01-06T20:00:45.439Z,2.10
2024-01-06T20:03:13.282Z,2.47
2024-01-06T20:05:44.853Z,2.00
2024-01-06T20:08:13.788Z,2.57
2024-01-06T20:10:43.013Z,2.00
2024-01-06T20:13:09.775Z,2.10
2024-01-06T20:15:39.192Z,2.23
2024-01-06T20:18:07.215Z,2.30
2024-01-06T20:20:34.137Z,2.00
2024-01-06T20:23:03.206Z,1.80
2024-01-06T20:25:29.998Z,1.83
2024-01-06T20:28:01.759Z,2.00
2024-01-06T20:30:28.824Z,2.07
2024-01-06T20:32:57.865Z,2.17
2024-01-06T20:35:24.726Z,2.23
2024-01-06T20:37:51.483Z,1.93
2024-01-06T20:40:18.394Z,2.00
2024-01-06T20:42:45.139Z,1.90
2024-01-06T20:45:14.449Z,1.97
2024-01-06T20:47:41.680Z,2.20
2024-01-06T20:50:08.873Z,2.05
2024-01-06T20:52:39.706Z,2.10
2024-01-06T20:55:09.044Z,1.63
2024-01-06T20:57:35.826Z,1.80
2024-01-06T21:00:05.531Z,1.50
2024-01-06T21:02:32.324Z,1.53
2024-01-06T21:05:05.541Z,1.70
2024-01-06T21:07:35.574Z,1.50
2024-01-06T21:10:05.436Z,1.30
2024-01-06T21:12:33.196Z,1.80
2024-01-06T21:15:01.248Z,1.70
2024-01-06T21:17:28.299Z,1.47
2024-01-06T21:19:57.678Z,1.37
2024-01-06T21:22:26.866Z,1.37
2024-01-06T21:24:56.005Z,1.23
2024-01-06T21:27:22.773Z,1.20
2024-01-06T21:29:49.515Z,1.03
2024-01-06T21:32:18.563Z,1.40
2024-01-06T21:34:50.043Z,1.63
2024-01-06T21:37:17.280Z,1.20
2024-01-06T21:39:44.066Z,1.33
2024-01-06T21:42:10.938Z,1.55
2024-01-06T21:44:38.605Z,1.80
2024-01-06T21:47:05.424Z,1.50
2024-01-06T21:49:32.191Z,1.50
2024-01-06T21:51:59.062Z,1.30
2024-01-06T21:54:25.838Z,1.70
2024-01-06T21:56:52.591Z,1.50
2024-01-06T21:59:26.174Z,2.53
2024-01-06T22:01:53.063Z,1.50
2024-01-06T22:04:19.918Z,1.80
2024-01-06T22:06:49.310Z,1.50
2024-01-06T22:09:20.055Z,1.40
2024-01-06T22:11:52.525Z,1.93
2024-01-06T22:14:24.023Z,1.70
2024-01-06T22:16:53.498Z,2.00
2024-01-06T22:19:20.195Z,1.80
2024-01-06T22:21:50.170Z,1.70
2024-01-06T22:24:21.022Z,2.00
2024-01-06T22:26:50.621Z,2.10
2024-01-06T22:29:17.295Z,2.20
2024-01-06T22:31:44.696Z,2.20
2024-01-06T22:34:13.769Z,2.93
2024-01-06T22:36:41.437Z,2.13
2024-01-06T22:39:08.824Z,2.40
2024-01-06T22:41:35.700Z,5.23
2024-01-06T22:44:02.416Z,3.00
2024-01-06T22:46:31.583Z,2.50
2024-01-06T22:48:59.373Z,2.43
2024-01-06T22:51:29.283Z,2.33
2024-01-06T22:53:58.377Z,2.05
2024-01-06T22:56:26.063Z,2.03
2024-01-06T22:58:52.840Z,2.00
2024-01-06T23:01:19.592Z,1.80
2024-01-06T23:03:46.742Z,1.50
2024-01-06T23:06:14.478Z,2.23
2024-01-06T23:08:41.356Z,1.90
2024-01-06T23:11:15.214Z,2.00
2024-01-06T23:13:44.380Z,2.00
2024-01-06T23:16:12.850Z,1.73
2024-01-06T23:18:40.175Z,2.10
2024-01-06T23:21:06.992Z,1.87
2024-01-06T23:23:37.521Z,1.73
2024-01-06T23:26:06.593Z,1.90
2024-01-06T23:28:37.994Z,2.00
2024-01-06T23:31:07.559Z,1.67
2024-01-06T23:33:34.555Z,1.90
2024-01-06T23:36:03.951Z,1.70
2024-01-06T23:38:30.741Z,1.80
2024-01-06T23:40:59.971Z,1.97
2024-01-06T23:43:26.693Z,1.80
2024-01-06T23:45:53.482Z,2.00
2024-01-06T23:48:20.493Z,1.80
2024-01-06T23:50:47.250Z,1.70
2024-01-06T23:53:18.566Z,1.57
2024-01-06T23:55:45.658Z,2.03
2024-01-06T23:58:14.780Z,2.10
